Willkommen auf der Webseite des Flugplatzes Uetersen/Heist PDF Drucken E-Mail

Liebe Piloten,

G20 und Asphaltierungsarbeiten sind Vergangenheit, als nächstes Highlight steht am Wochenende 29./30.07.2017 das alljährlich stattfindende Wings and Wheels Event vor der Tür mit reichlich Abwechslung am Boden und in der Luft. Weitere Infos unter http://www.wingsnwheels.de/

 

Sobald die Zeitfenster und Verfahren für an- und abfliegende Piloten an dem WnW-Wochenende genauer festgelegt sind, erhalten Sie hier eine aktuelle Information.

 

Ihr Flugplatzteam

 

Liebe Fliegerfreunde, liebe Gäste und Kunden des Flugplatzes Uetersen,

Herr Szaguhn steht mit seinem Tower-Restaurant täglich außer Montags für Sie bereit.

 

 

 

 

Zufallsbild

Aktuelle Termine

Mo Di Mi Do Fr Sa So
28 29 30 31 1 2 3
4 5 6 7 8 9 10
11 12 13 14 15 16 17
18 19 20 21 22 23 24
25 26 27 28 29 30 1

Pilotenwetter

[source: ADDS]
METAR
EDDH 220720Z 09003KT 060V150 7000 FEW047 BKN067 12/12 Q1021 NOSIG =
TAF
TAF EDDH 220500Z 2206/2312 VRB03KT 4500 BR FEW040 BECMG 2206/2209 9999 PROB40 TEMPO 2206/2207 1200 BCFG TEMPO 2222/2308 2500 BCFG PROB40 TEMPO 2300/2307 0600 FG =